Time;durP1;ratioP1;P1;durP2;ratioP2;P2;SDS_P1;SDS_P2;PMS_P1;PMS_P2;Temp;Humidity;BMP_temperature;BMP_pressure;BME280_temperature;BME280_humidity;BME280_pressure;Samples;Min_cycle;Max_cycle;Signal;HPM_P1;HPM_P2
2022/08/21 00:00:16;;;;;;;10.93;8.88;;;;;;;14.24;100.00;100936.69;693005;28;1087;-44
2022/08/21 00:00:38;;;;;;;11.10;8.70;;;;;;;14.28;100.00;100927.00;692950;28;1319;-46
2022/08/21 00:01:02;;;;;;;10.43;8.40;;;;;;;14.30;100.00;100940.97;693207;28;1225;-45
2022/08/21 00:01:26;;;;;;;10.45;8.35;;;;;;;14.35;100.00;100940.94;692298;28;4277;-49
2022/08/21 00:01:47;;;;;;;10.40;8.18;;;;;;;14.38;100.00;100941.72;693260;28;1397;-48
2022/08/21 00:02:15;;;;;;;10.23;8.18;;;;;;;14.39;100.00;100940.84;693652;28;1463;-48
2022/08/21 00:02:36;;;;;;;10.45;8.82;;;;;;;14.40;100.00;100937.31;692579;28;1047;-47
2022/08/21 00:03:01;;;;;;;10.45;8.25;;;;;;;14.43;100.00;100939.91;692661;28;1173;-47
2022/08/21 00:03:21;;;;;;;11.75;8.20;;;;;;;14.42;100.00;100940.78;694089;28;1165;-45
2022/08/21 00:03:42;;;;;;;11.70;7.93;;;;;;;14.37;100.00;100932.13;693343;28;1237;-45
2022/08/21 00:04:07;;;;;;;9.98;8.27;;;;;;;14.31;100.00;100935.69;693088;28;1265;-43
2022/08/21 00:04:27;;;;;;;9.98;8.10;;;;;;;14.30;100.00;100938.34;692447;28;4515;-47
2022/08/21 00:04:48;;;;;;;10.97;7.93;;;;;;;14.26;100.00;100934.91;693126;28;1043;-47
2022/08/21 00:05:08;;;;;;;11.50;8.57;;;;;;;14.28;100.00;100930.47;691834;28;1094;-46
2022/08/21 00:05:30;;;;;;;10.32;8.45;;;;;;;14.29;100.00;100934.84;693452;28;1272;-48
2022/08/21 00:05:51;;;;;;;10.73;8.10;;;;;;;14.24;100.00;100926.16;692803;28;1266;-46
2022/08/21 00:06:12;;;;;;;12.13;8.80;;;;;;;14.24;100.00;100930.56;691487;28;1271;-45
2022/08/21 00:06:33;;;;;;;10.50;8.52;;;;;;;14.23;100.00;100934.97;690402;28;1238;-44
2022/08/21 00:06:54;;;;;;;11.88;8.90;;;;;;;14.18;100.00;100926.28;690721;28;1171;-44
2022/08/21 00:07:14;;;;;;;12.60;8.90;;;;;;;14.18;100.00;100928.91;690892;28;4290;-48
2022/08/21 00:07:35;;;;;;;11.98;8.98;;;;;;;14.16;100.00;100927.19;690567;28;1253;-48
2022/08/21 00:07:55;;;;;;;11.13;8.73;;;;;;;14.15;100.00;100926.34;693371;28;1251;-48
2022/08/21 00:08:18;;;;;;;11.68;8.70;;;;;;;14.16;100.00;100921.94;694247;28;1145;-47
2022/08/21 00:08:38;;;;;;;10.95;8.77;;;;;;;14.12;100.00;100923.72;692836;28;1386;-46
2022/08/21 00:08:59;;;;;;;11.53;8.80;;;;;;;14.10;100.00;100928.16;693035;28;1277;-45
2022/08/21 00:09:20;;;;;;;11.60;8.80;;;;;;;14.06;100.00;100923.84;694061;28;1165;-46
2022/08/21 00:09:40;;;;;;;10.70;8.88;;;;;;;14.04;100.00;100923.84;693298;28;1285;-48
2022/08/21 00:10:01;;;;;;;11.03;8.67;;;;;;;14.04;100.00;100922.97;694449;28;1215;-48
2022/08/21 00:10:21;;;;;;;11.13;8.70;;;;;;;14.01;100.00;100925.66;693160;28;4245;-52
2022/08/21 00:10:43;;;;;;;11.40;8.82;;;;;;;13.99;100.00;100923.06;693001;28;1238;-48
2022/08/21 00:11:04;;;;;;;11.07;8.70;;;;;;;13.95;100.00;100922.22;690650;28;1245;-48
2022/08/21 00:11:26;;;;;;;11.52;8.85;;;;;;;13.93;100.00;100921.38;687920;28;1281;-45
2022/08/21 00:11:47;;;;;;;12.60;9.23;;;;;;;13.93;100.00;100926.63;688910;28;1429;-47
2022/08/21 00:12:08;;;;;;;11.75;9.15;;;;;;;13.91;100.00;100923.16;688300;28;1370;-46
2022/08/21 00:12:31;;;;;;;12.13;8.87;;;;;;;13.91;100.00;100920.53;688511;28;1285;-44
2022/08/21 00:12:52;;;;;;;11.23;8.63;;;;;;;13.94;100.00;100924.88;692446;28;1992;-44
2022/08/21 00:13:13;;;;;;;10.90;8.53;;;;;;;13.94;100.00;100923.13;692592;28;1079;-45
2022/08/21 00:13:34;;;;;;;11.43;8.68;;;;;;;14.01;100.00;100923.03;692966;28;4821;-44
2022/08/21 00:13:54;;;;;;;10.73;8.95;;;;;;;14.02;100.00;100919.50;691023;28;1159;-46
2022/08/21 00:14:15;;;;;;;10.13;8.90;;;;;;;14.04;100.00;100921.22;692978;28;1376;-47
2022/08/21 00:14:36;;;;;;;11.02;9.13;;;;;;;14.05;100.00;100919.47;693582;28;1253;-46
2022/08/21 00:14:57;;;;;;;10.75;9.23;;;;;;;14.08;100.00;100919.41;693752;28;1392;-47
2022/08/21 00:15:22;;;;;;;11.98;9.25;;;;;;;14.09;100.00;100921.16;692721;28;1118;-43
2022/08/21 00:15:42;;;;;;;10.25;8.57;;;;;;;14.13;100.00;100917.59;692912;28;1233;-45
2022/08/21 00:16:03;;;;;;;10.90;9.00;;;;;;;14.12;100.00;100919.34;693033;28;1010;-45
2022/08/21 00:16:24;;;;;;;10.88;9.05;;;;;;;14.16;100.00;100917.53;693310;28;4558;-47
2022/08/21 00:16:44;;;;;;;11.85;8.57;;;;;;;14.21;100.00;100920.09;694597;28;1412;-44
2022/08/21 00:17:06;;;;;;;12.30;8.80;;;;;;;14.25;100.00;100916.53;693516;28;1239;-46
2022/08/21 00:17:26;;;;;;;12.60;8.95;;;;;;;14.30;100.00;100923.47;692832;28;1413;-44
2022/08/21 00:17:47;;;;;;;12.20;8.83;;;;;;;14.37;100.00;100923.34;693073;28;1412;-47
2022/08/21 00:18:10;;;;;;;9.68;8.40;;;;;;;14.38;100.00;100918.06;690345;28;1512;-47
2022/08/21 00:18:31;;;;;;;10.50;8.68;;;;;;;14.40;100.00;100925.91;690933;28;1218;-48
2022/08/21 00:18:51;;;;;;;11.40;8.57;;;;;;;14.39;100.00;100916.31;689276;28;1092;-43
2022/08/21 00:19:12;;;;;;;11.43;8.70;;;;;;;14.35;100.00;100922.50;690365;28;1132;-45
2022/08/21 00:19:32;;;;;;;12.10;8.90;;;;;;;14.33;100.00;100924.28;689341;28;4490;-48
2022/08/21 00:19:53;;;;;;;12.03;8.70;;;;;;;14.25;100.00;100921.78;688530;28;1314;-48
2022/08/21 00:20:15;;;;;;;11.40;8.80;;;;;;;14.19;100.00;100916.63;687993;28;1089;-47
2022/08/21 00:20:36;;;;;;;13.48;8.77;;;;;;;14.14;100.00;100914.94;691212;28;1270;-44
2022/08/21 00:20:57;;;;;;;12.73;8.85;;;;;;;14.14;100.00;100911.44;692695;28;1270;-45
2022/08/21 00:21:17;;;;;;;10.77;8.37;;;;;;;14.15;100.00;100918.44;694426;28;1150;-47
2022/08/21 00:21:38;;;;;;;10.80;8.90;;;;;;;14.12;100.00;100910.56;693445;28;1281;-48
2022/08/21 00:21:58;;;;;;;11.63;9.10;;;;;;;14.08;100.00;100911.53;694207;28;1250;-44
2022/08/21 00:22:19;;;;;;;11.63;9.30;;;;;;;14.06;100.00;100918.56;694436;28;4518;-45
2022/08/21 00:22:41;;;;;;;11.77;9.38;;;;;;;14.01;100.00;100912.50;693994;28;1294;-47
2022/08/21 00:23:01;;;;;;;11.50;9.25;;;;;;;13.96;100.00;100916.06;694196;28;1607;-43
2022/08/21 00:23:22;;;;;;;11.85;9.32;;;;;;;13.94;100.00;100914.34;694064;28;1226;-47
2022/08/21 00:23:43;;;;;;;11.15;8.82;;;;;;;13.99;100.00;100916.94;693558;28;1246;-46
2022/08/21 00:24:03;;;;;;;9.98;8.50;;;;;;;14.03;100.00;100913.38;690322;28;1784;-44
2022/08/21 00:24:25;;;;;;;11.73;8.60;;;;;;;14.05;100.00;100914.19;691018;28;1518;-48
2022/08/21 00:24:45;;;;;;;11.45;8.35;;;;;;;14.02;100.00;100915.09;690737;28;1306;-45
2022/08/21 00:25:07;;;;;;;10.23;8.33;;;;;;;14.01;100.00;100915.13;689012;28;1129;-45
2022/08/21 00:25:27;;;;;;;10.20;8.25;;;;;;;14.05;100.00;100916.84;691816;28;4584;-47
2022/08/21 00:25:48;;;;;;;10.90;8.20;;;;;;;14.08;100.00;100917.66;692555;28;1571;-47
2022/08/21 00:26:10;;;;;;;11.25;8.52;;;;;;;14.09;100.00;100911.50;694084;28;1207;-48
2022/08/21 00:26:31;;;;;;;11.02;8.40;;;;;;;14.10;100.00;100912.38;689576;28;1095;-45
2022/08/21 00:26:52;;;;;;;10.43;8.30;;;;;;;14.11;100.00;100911.50;687831;28;1376;-48
2022/08/21 00:27:13;;;;;;;11.10;8.48;;;;;;;14.13;100.00;100917.59;687874;28;1665;-45
2022/08/21 00:27:33;;;;;;;10.50;8.40;;;;;;;14.14;100.00;100916.69;687534;28;1143;-46
2022/08/21 00:27:54;;;;;;;10.65;8.40;;;;;;;14.16;100.00;100916.66;684835;28;1276;-48
2022/08/21 00:28:15;;;;;;;10.32;8.32;;;;;;;14.20;100.00;100910.47;682817;28;4546;-47
2022/08/21 00:28:36;;;;;;;9.60;8.20;;;;;;;14.14;100.00;100914.94;685410;28;1196;-44
2022/08/21 00:28:56;;;;;;;11.17;8.37;;;;;;;14.08;100.00;100909.78;688702;28;1274;-46
2022/08/21 00:29:17;;;;;;;11.13;8.50;;;;;;;14.06;100.00;100913.31;690685;28;1104;-43
2022/08/21 00:29:38;;;;;;;10.35;8.43;;;;;;;14.07;100.00;100913.28;691174;28;1341;-45
2022/08/21 00:29:59;;;;;;;11.43;8.38;;;;;;;14.06;100.00;100908.06;691945;28;1216;-45
2022/08/21 00:30:21;;;;;;;11.02;8.45;;;;;;;14.06;100.00;100915.94;692959;28;1102;-45
2022/08/21 00:30:43;;;;;;;10.13;8.65;;;;;;;14.05;100.00;100908.94;693826;28;1227;-47
2022/08/21 00:31:03;;;;;;;12.32;9.00;;;;;;;14.04;100.00;100909.81;693576;28;1141;-48
2022/08/21 00:31:24;;;;;;;12.40;9.00;;;;;;;14.03;100.00;100906.34;692971;28;4457;-47
2022/08/21 00:31:45;;;;;;;12.18;8.98;;;;;;;14.03;100.00;100905.50;690667;28;1420;-47
2022/08/21 00:32:06;;;;;;;10.75;8.70;;;;;;;14.03;100.00;100910.75;690563;28;1495;-45
2022/08/21 00:32:27;;;;;;;11.50;8.52;;;;;;;13.99;100.00;100911.69;692583;28;1407;-45
2022/08/21 00:32:48;;;;;;;11.52;8.80;;;;;;;13.86;100.00;100914.47;692605;28;1918;-46
2022/08/21 00:33:11;;;;;;;10.43;8.57;;;;;;;13.84;100.00;100903.13;693439;28;1326;-45
2022/08/21 00:33:32;;;;;;;11.63;9.15;;;;;;;13.84;100.00;100905.75;693163;28;1171;-48
2022/08/21 00:33:52;;;;;;;12.05;9.18;;;;;;;13.87;100.00;100905.69;693238;28;1254;-48
2022/08/21 00:34:13;;;;;;;10.77;8.70;;;;;;;13.87;100.00;100899.56;693007;28;1181;-44
2022/08/21 00:34:34;;;;;;;12.20;9.00;;;;;;;13.80;100.00;100904.03;693065;28;4572;-48
2022/08/21 00:34:54;;;;;;;12.30;9.10;;;;;;;13.80;100.00;100909.31;693021;28;1222;-48
2022/08/21 00:35:18;;;;;;;12.63;9.20;;;;;;;13.84;100.00;100911.00;693550;28;1266;-47
2022/08/21 00:35:41;;;;;;;11.70;8.38;;;;;;;13.87;100.00;100908.31;693091;28;1333;-47
2022/08/21 00:36:02;;;;;;;11.40;8.50;;;;;;;13.91;100.00;100909.16;691512;28;1273;-47
2022/08/21 00:36:23;;;;;;;11.02;8.90;;;;;;;13.91;100.00;100902.13;693218;28;1261;-50
2022/08/21 00:36:43;;;;;;;11.23;8.87;;;;;;;13.91;100.00;100906.53;693922;28;1312;-46
2022/08/21 00:37:04;;;;;;;11.67;8.73;;;;;;;13.89;100.00;100906.56;692339;28;1317;-47
2022/08/21 00:37:25;;;;;;;12.73;8.80;;;;;;;13.89;100.00;100903.91;691320;28;4268;-47
2022/08/21 00:37:45;;;;;;;11.77;8.50;;;;;;;13.94;100.00;100904.72;693385;28;1202;-47
2022/08/21 00:38:08;;;;;;;12.07;8.90;;;;;;;14.00;100.00;100903.78;692695;28;1339;-46
2022/08/21 00:38:28;;;;;;;12.00;8.70;;;;;;;14.09;100.00;100903.59;692567;28;1844;-45
2022/08/21 00:38:49;;;;;;;11.80;8.52;;;;;;;14.08;100.00;100901.00;693276;28;1624;-45
2022/08/21 00:39:09;;;;;;;11.63;9.10;;;;;;;14.00;100.00;100911.66;693746;28;1115;-45
2022/08/21 00:39:30;;;;;;;11.23;9.20;;;;;;;13.94;100.00;100907.38;692379;28;1198;-47
2022/08/21 00:39:50;;;;;;;11.68;9.23;;;;;;;13.89;100.00;100906.56;692426;28;1285;-46
2022/08/21 00:40:14;;;;;;;11.03;8.60;;;;;;;13.89;100.00;100903.06;692555;28;1266;-47
2022/08/21 00:40:40;;;;;;;10.45;8.32;;;;;;;13.93;100.00;100904.75;693980;28;4828;-47
2022/08/21 00:41:04;;;;;;;12.95;8.88;;;;;;;13.93;100.00;100897.72;691976;28;1257;-48
2022/08/21 00:41:26;;;;;;;10.65;8.10;;;;;;;13.96;100.00;100900.31;693227;28;1396;-49
2022/08/21 00:41:47;;;;;;;10.23;8.37;;;;;;;13.98;100.00;100902.06;691862;28;1405;-47
2022/08/21 00:42:07;;;;;;;10.93;8.90;;;;;;;13.93;100.00;100900.34;692228;28;1449;-46
2022/08/21 00:42:30;;;;;;;10.63;8.77;;;;;;;13.87;100.00;100897.81;692283;28;1618;-45
2022/08/21 00:42:50;;;;;;;11.57;9.05;;;;;;;13.79;100.00;100897.94;693231;28;1202;-45
2022/08/21 00:43:13;;;;;;;12.03;9.23;;;;;;;13.73;100.00;100898.00;693389;28;1234;-47
2022/08/21 00:43:36;;;;;;;11.82;8.77;;;;;;;13.76;100.00;100897.09;692232;28;4327;-49
2022/08/21 00:43:57;;;;;;;11.40;8.80;;;;;;;13.79;100.00;100899.72;693744;28;1206;-45
2022/08/21 00:44:17;;;;;;;10.33;8.70;;;;;;;13.78;100.00;100900.59;693390;28;1094;-44
2022/08/21 00:44:37;;;;;;;10.18;8.48;;;;;;;13.77;100.00;100893.59;692942;28;1222;-45
2022/08/21 00:44:58;;;;;;;10.40;8.57;;;;;;;13.78;100.00;100901.44;688294;28;4043;-46
2022/08/21 00:45:20;;;;;;;10.38;8.40;;;;;;;13.76;100.00;100903.25;688904;28;1081;-46
2022/08/21 00:45:41;;;;;;;10.63;8.82;;;;;;;13.77;100.00;100898.84;690244;28;1373;-49
2022/08/21 00:46:03;;;;;;;10.60;8.30;;;;;;;13.77;100.00;100893.59;691126;28;1159;-46
2022/08/21 00:46:23;;;;;;;11.30;8.65;;;;;;;13.77;100.00;100901.47;688970;28;4509;-45
2022/08/21 00:46:44;;;;;;;12.17;8.70;;;;;;;13.76;100.00;100899.72;691928;28;1270;-46
2022/08/21 00:47:04;;;;;;;11.63;8.90;;;;;;;13.78;100.00;100900.59;693606;28;1245;-45
2022/08/21 00:47:25;;;;;;;10.97;8.50;;;;;;;13.75;100.00;100906.75;692817;28;1468;-46
2022/08/21 00:47:45;;;;;;;11.20;8.70;;;;;;;13.78;100.00;100903.22;694013;28;919;-47
2022/08/21 00:48:05;;;;;;;10.70;8.23;;;;;;;13.81;100.00;100899.69;690711;28;1418;-47
2022/08/21 00:48:27;;;;;;;10.50;8.57;;;;;;;13.80;100.00;100904.03;691266;28;1381;-46
2022/08/21 00:48:47;;;;;;;11.88;9.18;;;;;;;13.82;100.00;100894.41;690234;28;1420;-47
2022/08/21 00:49:09;;;;;;;10.90;8.73;;;;;;;13.84;100.00;100900.47;692094;28;997;-46
2022/08/21 00:49:29;;;;;;;10.63;8.90;;;;;;;13.88;100.00;100896.91;692557;28;4229;-44
2022/08/21 00:49:50;;;;;;;12.03;8.40;;;;;;;13.91;100.00;100898.63;690623;28;1536;-46
2022/08/21 00:50:12;;;;;;;11.23;8.63;;;;;;;13.91;100.00;100904.75;693386;28;1155;-45
2022/08/21 00:50:39;;;;;;;10.80;8.73;;;;;;;13.89;100.00;100903.06;693272;28;1207;-44
2022/08/21 00:51:06;;;;;;;12.38;9.02;;;;;;;13.80;100.00;100901.41;690039;28;1421;-48
2022/08/21 00:51:36;;;;;;;10.95;9.30;;;;;;;13.72;100.00;100905.91;688306;28;1270;-47
2022/08/21 00:52:00;;;;;;;11.75;9.50;;;;;;;13.62;100.00;100902.53;693102;28;1036;-47
2022/08/21 00:52:25;;;;;;;11.18;9.23;;;;;;;13.59;100.00;100906.06;692412;28;4385;-47
2022/08/21 00:52:45;;;;;;;12.68;9.45;;;;;;;13.60;100.00;100906.97;692812;28;1915;-47
2022/08/21 00:53:07;;;;;;;11.75;8.65;;;;;;;13.59;100.00;100906.06;695282;28;1715;-45
2022/08/21 00:53:30;;;;;;;11.27;9.10;;;;;;;13.59;100.00;100908.69;692557;28;1409;-48
2022/08/21 00:53:57;;;;;;;10.63;8.93;;;;;;;13.54;100.00;100900.03;691130;28;1036;-48
2022/08/21 00:54:21;;;;;;;12.80;9.07;;;;;;;13.46;100.00;100909.78;690467;28;1088;-49
2022/08/21 00:54:42;;;;;;;12.18;9.25;;;;;;;13.43;100.00;100909.78;690639;28;1230;-49
2022/08/21 00:55:07;;;;;;;11.80;9.27;;;;;;;13.40;100.00;100910.72;690117;28;1310;-47
2022/08/21 00:55:29;;;;;;;11.43;9.50;;;;;;;13.44;100.00;100906.28;688604;28;4478;-47
2022/08/21 00:55:51;;;;;;;12.63;9.15;;;;;;;13.47;100.00;100900.97;688807;28;1430;-47
2022/08/21 00:56:13;;;;;;;11.10;8.88;;;;;;;13.52;100.00;100909.69;691583;28;1306;-46
2022/08/21 00:56:34;;;;;;;10.43;8.50;;;;;;;13.53;100.00;100903.53;690781;28;1612;-46
2022/08/21 00:56:58;;;;;;;9.80;8.47;;;;;;;13.57;100.00;100901.75;690504;28;1251;-45
2022/08/21 00:57:27;;;;;;;9.73;8.32;;;;;;;13.66;100.00;100906.00;688673;28;1291;-48
2022/08/21 00:57:51;;;;;;;10.60;8.40;;;;;;;13.62;100.00;100905.16;690794;28;1445;-44
2022/08/21 00:58:14;;;;;;;10.60;8.20;;;;;;;13.69;100.00;100908.59;690002;28;1100;-44
2022/08/21 00:58:36;;;;;;;11.77;8.73;;;;;;;13.71;100.00;100909.44;691793;28;4882;-46
2022/08/21 00:58:58;;;;;;;12.30;9.25;;;;;;;13.70;100.00;100910.34;691541;28;1533;-45
2022/08/21 00:59:21;;;;;;;11.13;8.32;;;;;;;13.69;100.00;100917.31;691750;28;1107;-48
2022/08/21 00:59:45;;;;;;;10.70;8.15;;;;;;;13.68;100.00;100905.09;692128;28;4982;-47
2022/08/21 01:00:10;;;;;;;10.98;9.13;;;;;;;13.63;100.00;100914.78;691747;28;1281;-46
2022/08/21 01:00:34;;;;;;;11.65;9.30;;;;;;;13.54;100.00;100907.91;693742;28;1235;-44
2022/08/21 01:00:55;;;;;;;11.80;9.38;;;;;;;13.52;100.00;100914.06;692196;28;1695;-46
2022/08/21 01:01:16;;;;;;;11.77;9.07;;;;;;;13.52;100.00;100909.69;692021;28;4299;-45
2022/08/21 01:01:37;;;;;;;12.50;9.10;;;;;;;13.55;100.00;100906.16;693056;28;1517;-49
2022/08/21 01:01:57;;;;;;;10.95;9.18;;;;;;;13.50;100.00;100906.22;691853;28;1687;-51
2022/08/21 01:02:20;;;;;;;11.80;9.37;;;;;;;13.47;100.00;100916.75;692618;28;1044;-47
2022/08/21 01:02:41;;;;;;;12.52;9.43;;;;;;;13.41;100.00;100908.94;692592;28;1321;-45
2022/08/21 01:03:07;;;;;;;11.02;9.75;;;;;;;13.35;100.00;100911.63;693780;28;1432;-47
2022/08/21 01:03:27;;;;;;;10.63;9.30;;;;;;;13.29;100.00;100913.44;692181;28;1305;-45
2022/08/21 01:03:49;;;;;;;11.47;9.10;;;;;;;13.24;100.00;100915.25;693725;28;1238;-45
2022/08/21 01:04:09;;;;;;;12.48;9.40;;;;;;;13.20;100.00;100913.53;694172;28;1126;-45
2022/08/21 01:04:30;;;;;;;11.35;9.45;;;;;;;13.15;100.00;100909.22;692721;28;4268;-46
2022/08/21 01:04:50;;;;;;;12.10;9.63;;;;;;;13.09;100.00;100911.03;693630;28;1222;-46
2022/08/21 01:05:12;;;;;;;13.43;9.87;;;;;;;13.06;100.00;100912.84;691743;28;1286;-44
2022/08/21 01:05:32;;;;;;;13.40;9.68;;;;;;;13.03;100.00;100912.84;689973;28;1271;-44
2022/08/21 01:05:53;;;;;;;14.30;9.70;;;;;;;13.04;100.00;100912.84;691632;28;1264;-47
2022/08/21 01:06:14;;;;;;;13.40;9.80;;;;;;;13.06;100.00;100911.06;690381;28;1366;-47
2022/08/21 01:06:35;;;;;;;12.87;10.03;;;;;;;13.05;100.00;100913.72;689051;28;1287;-46
2022/08/21 01:06:56;;;;;;;12.00;9.30;;;;;;;12.99;100.00;100906.78;685364;28;1638;-49
2022/08/21 01:07:17;;;;;;;14.10;9.65;;;;;;;12.95;100.00;100915.56;687037;28;4300;-44
2022/08/21 01:07:38;;;;;;;13.48;10.27;;;;;;;12.91;100.00;100917.34;686507;28;1340;-47
2022/08/21 01:07:58;;;;;;;12.55;9.80;;;;;;;12.90;100.00;100913.00;688119;28;1452;-49
2022/08/21 01:08:20;;;;;;;12.10;10.10;;;;;;;12.91;100.00;100912.09;691962;28;1022;-47
2022/08/21 01:08:41;;;;;;;11.43;9.68;;;;;;;12.98;100.00;100917.31;693009;28;1104;-45
2022/08/21 01:09:02;;;;;;;12.15;9.52;;;;;;;13.01;100.00;100912.00;692603;28;975;-47
2022/08/21 01:09:23;;;;;;;11.27;9.10;;;;;;;12.98;100.00;100912.06;695114;28;1510;-47
2022/08/21 01:09:46;;;;;;;11.55;9.20;;;;;;;12.95;100.00;100908.56;693409;28;1388;-47
2022/08/21 01:10:07;;;;;;;13.85;9.70;;;;;;;12.94;100.00;100912.09;692752;28;1243;-48
2022/08/21 01:10:29;;;;;;;12.73;9.70;;;;;;;12.98;100.00;100915.53;680572;28;4303;-48
2022/08/21 01:10:51;;;;;;;10.63;9.30;;;;;;;12.99;100.00;100908.53;690274;28;1263;-45
2022/08/21 01:11:15;;;;;;;10.85;9.10;;;;;;;13.02;100.00;100916.38;690137;28;1028;-48
2022/08/21 01:11:35;;;;;;;12.55;9.43;;;;;;;13.07;100.00;100911.94;690113;28;1293;-44
2022/08/21 01:11:56;;;;;;;11.93;9.15;;;;;;;13.16;100.00;100916.22;693462;28;997;-47
2022/08/21 01:12:17;;;;;;;12.43;9.10;;;;;;;13.19;100.00;100914.41;693932;28;1197;-47
2022/08/21 01:12:39;;;;;;;12.95;9.40;;;;;;;13.15;100.00;100915.34;692772;28;1143;-46
2022/08/21 01:13:00;;;;;;;13.50;10.20;;;;;;;13.11;100.00;100919.78;691200;28;1514;-46
2022/08/21 01:13:24;;;;;;;12.10;9.67;;;;;;;13.05;100.00;100916.34;692257;28;4330;-48
2022/08/21 01:13:46;;;;;;;12.82;9.77;;;;;;;13.02;100.00;100909.38;692253;28;1380;-47
2022/08/21 01:14:06;;;;;;;12.52;9.57;;;;;;;13.06;100.00;100916.31;692593;28;1326;-49
2022/08/21 01:14:28;;;;;;;12.00;9.13;;;;;;;13.12;100.00;100915.38;692729;28;1214;-45
2022/08/21 01:14:49;;;;;;;12.52;9.43;;;;;;;13.12;100.00;100912.75;692186;28;1578;-46
2022/08/21 01:15:10;;;;;;;12.30;9.30;;;;;;;13.04;100.00;100912.84;691344;28;1319;-43
2022/08/21 01:15:35;;;;;;;12.20;9.63;;;;;;;12.98;100.00;100920.78;691994;28;1305;-45
2022/08/21 01:15:59;;;;;;;11.55;9.45;;;;;;;12.98;100.00;100919.94;691555;28;1254;-47
2022/08/21 01:16:22;;;;;;;10.95;9.85;;;;;;;12.97;100.00;100919.03;681804;28;4326;-44
2022/08/21 01:16:45;;;;;;;12.50;9.57;;;;;;;12.97;100.00;100918.19;689981;28;1429;-48
2022/08/21 01:17:06;;;;;;;12.18;9.60;;;;;;;13.00;100.00;100920.75;692294;28;1204;-44
2022/08/21 01:17:27;;;;;;;13.23;9.65;;;;;;;13.04;100.00;100922.47;692411;28;1539;-46
2022/08/21 01:17:49;;;;;;;13.00;9.25;;;;;;;13.06;100.00;100921.56;690098;28;1263;-45
2022/08/21 01:18:11;;;;;;;11.93;9.05;;;;;;;13.06;100.00;100915.47;690027;28;1219;-43
2022/08/21 01:18:34;;;;;;;11.60;9.50;;;;;;;13.01;100.00;100922.50;691635;28;940;-45
2022/08/21 01:18:54;;;;;;;10.88;9.75;;;;;;;12.97;100.00;100916.41;692226;28;1135;-46
2022/08/21 01:19:17;;;;;;;12.20;10.27;;;;;;;13.00;100.00;100929.53;691243;28;4536;-46
2022/08/21 01:19:40;;;;;;;12.07;9.70;;;;;;;13.02;100.00;100919.88;692654;28;1587;-45
2022/08/21 01:20:04;;;;;;;11.98;9.88;;;;;;;13.02;100.00;100919.88;692482;28;1288;-52
2022/08/21 01:20:25;;;;;;;12.27;10.50;;;;;;;13.04;100.00;100925.09;693135;28;1378;-47
2022/08/21 01:21:10;;;;;;;12.13;10.30;;;;;;;12.97;100.00;100920.81;693286;28;1392;-45
2022/08/21 01:21:31;;;;;;;10.80;9.70;;;;;;;13.00;100.00;100926.91;692944;28;1194;-48
2022/08/21 01:21:51;;;;;;;11.20;9.83;;;;;;;13.01;100.00;100927.75;691001;28;1246;-44
2022/08/21 01:22:12;;;;;;;11.30;9.70;;;;;;;13.04;100.00;100927.72;694223;28;1176;-45
2022/08/21 01:22:33;;;;;;;10.90;9.52;;;;;;;13.06;100.00;100924.19;692438;28;4301;-49
2022/08/21 01:22:53;;;;;;;14.50;9.82;;;;;;;13.08;100.00;100926.81;690126;28;1326;-44
2022/08/21 01:23:14;;;;;;;13.80;9.73;;;;;;;13.07;100.00;100919.81;690197;28;1169;-50
2022/08/21 01:23:37;;;;;;;11.00;9.07;;;;;;;13.07;100.00;100919.81;690440;28;1017;-47
2022/08/21 01:23:58;;;;;;;11.30;9.27;;;;;;;13.09;100.00;100923.28;687826;28;1283;-46
2022/08/21 01:24:18;;;;;;;12.23;9.37;;;;;;;13.07;100.00;100925.06;690418;28;1174;-48
2022/08/21 01:24:39;;;;;;;12.13;9.30;;;;;;;13.04;100.00;100919.84;690774;28;1402;-47
2022/08/21 01:24:59;;;;;;;11.75;8.95;;;;;;;13.01;100.00;100919.88;691479;28;1514;-48
2022/08/21 01:25:20;;;;;;;12.17;9.07;;;;;;;12.98;100.00;100925.19;693517;28;4388;-48
2022/08/21 01:25:40;;;;;;;11.80;9.05;;;;;;;13.05;100.00;100924.22;693051;28;1326;-48
2022/08/21 01:26:02;;;;;;;11.67;9.30;;;;;;;13.08;100.00;100924.19;696324;28;1338;-47
2022/08/21 01:26:27;;;;;;;12.85;9.65;;;;;;;13.10;100.00;100919.78;694517;28;1431;-47
2022/08/21 01:26:49;;;;;;;12.30;9.15;;;;;;;13.13;100.00;100926.78;692025;28;1511;-49
2022/08/21 01:27:10;;;;;;;10.65;8.88;;;;;;;13.11;100.00;100924.13;692620;28;1171;-47
2022/08/21 01:27:31;;;;;;;11.30;8.93;;;;;;;13.16;100.00;100924.97;693117;28;1206;-47
2022/08/21 01:27:51;;;;;;;12.23;8.93;;;;;;;13.20;100.00;100923.19;692519;28;1285;-46
2022/08/21 01:28:14;;;;;;;11.93;9.38;;;;;;;13.22;100.00;100921.41;693697;28;1484;-45
2022/08/21 01:28:40;;;;;;;10.93;9.07;;;;;;;13.23;100.00;100921.38;690626;28;7392;-48
2022/08/21 01:29:26;;;;;;;11.98;9.65;;;;;;;13.18;100.00;100920.59;693119;28;1270;-49
2022/08/21 01:29:54;;;;;;;12.18;8.82;;;;;;;13.25;100.00;100921.34;692651;28;1246;-47
2022/08/21 01:30:21;;;;;;;12.48;8.88;;;;;;;13.28;100.00;100923.97;691721;28;1453;-46
2022/08/21 01:30:43;;;;;;;10.65;8.98;;;;;;;13.36;100.00;100921.25;692467;28;1218;-46
2022/08/21 01:31:07;;;;;;;11.10;8.90;;;;;;;13.37;100.00;100923.00;692588;28;1063;-46
2022/08/21 01:31:28;;;;;;;11.18;8.77;;;;;;;13.39;100.00;100918.63;691617;28;4555;-44
2022/08/21 01:31:52;;;;;;;10.82;8.30;;;;;;;13.37;100.00;100920.38;692540;28;1029;-48
2022/08/21 01:32:17;;;;;;;12.07;8.80;;;;;;;13.29;100.00;100918.69;694062;28;1165;-44
2022/08/21 01:32:38;;;;;;;11.25;8.98;;;;;;;13.24;100.00;100924.88;692745;28;1001;-45
2022/08/21 01:32:58;;;;;;;12.30;9.10;;;;;;;13.23;100.00;100921.38;693521;28;1930;-48
2022/08/21 01:33:22;;;;;;;12.63;9.37;;;;;;;13.22;100.00;100919.66;693697;28;1091;-50
2022/08/21 01:33:43;;;;;;;13.05;9.43;;;;;;;13.17;100.00;100916.22;692570;28;1099;-49
2022/08/21 01:34:04;;;;;;;11.93;9.50;;;;;;;13.15;100.00;100920.59;690392;28;1258;-47
2022/08/21 01:34:25;;;;;;;12.80;9.68;;;;;;;13.15;100.00;100920.59;690537;28;4528;-46
2022/08/21 01:34:47;;;;;;;11.47;9.00;;;;;;;13.20;100.00;100921.41;692318;28;1516;-45
2022/08/21 01:35:09;;;;;;;11.10;8.90;;;;;;;13.21;100.00;100915.28;692958;28;1463;-44
2022/08/21 01:35:30;;;;;;;10.75;9.18;;;;;;;13.19;100.00;100919.66;692735;28;1207;-44
2022/08/21 01:35:51;;;;;;;12.70;9.30;;;;;;;13.17;100.00;100923.22;692992;28;1210;-47
2022/08/21 01:36:12;;;;;;;13.88;9.43;;;;;;;13.12;100.00;100920.63;691897;28;1135;-47
2022/08/21 01:36:32;;;;;;;11.57;9.30;;;;;;;13.10;100.00;100919.78;692567;28;1316;-47
2022/08/21 01:36:52;;;;;;;11.75;9.35;;;;;;;13.09;100.00;100918.06;693024;28;1217;-44
2022/08/21 01:37:14;;;;;;;12.87;9.63;;;;;;;13.09;100.00;100912.81;693304;28;1231;-45
2022/08/21 01:37:34;;;;;;;11.43;9.80;;;;;;;13.08;100.00;100919.81;692591;28;4620;-47
2022/08/21 01:37:55;;;;;;;12.95;10.10;;;;;;;13.07;100.00;100915.44;692424;28;1198;-47
2022/08/21 01:38:15;;;;;;;13.30;9.45;;;;;;;13.04;100.00;100912.84;691566;28;1126;-45
2022/08/21 01:38:36;;;;;;;11.00;9.43;;;;;;;13.02;100.00;100919.00;692795;28;1344;-45
2022/08/21 01:38:56;;;;;;;11.57;9.32;;;;;;;13.00;100.00;100915.50;692511;28;1282;-48
2022/08/21 01:39:17;;;;;;;13.70;9.70;;;;;;;12.99;100.00;100916.38;692688;28;1176;-49
2022/08/21 01:39:39;;;;;;;13.23;9.52;;;;;;;12.98;100.00;100917.31;692485;28;1308;-45
2022/08/21 01:40:00;;;;;;;12.50;9.70;;;;;;;12.96;100.00;100914.69;693149;28;1288;-48
2022/08/21 01:40:21;;;;;;;12.07;9.77;;;;;;;12.97;100.00;100916.41;691550;28;4361;-46
2022/08/21 01:40:41;;;;;;;11.68;9.27;;;;;;;12.97;100.00;100915.56;692801;28;1341;-45
2022/08/21 01:41:02;;;;;;;12.13;9.73;;;;;;;12.95;100.00;100913.81;692436;28;3715;-46
2022/08/21 01:41:22;;;;;;;12.57;10.03;;;;;;;12.95;100.00;100912.94;691119;28;1102;-50